• Join FlightAware (Why Join?)
  • Login
  • US Flag 
12:09PM EST


 

Airport Tracker/Info


-or-


 

Live Flight TrackerFlight Track Log ✈ BOE5 ✈ 16-Mar-2012 ✈ KMWH - KBFI

Flight Track Log - Related Links

Times and Time Zones

All times are in EDT time to prevent confusion due to time zone crossing. See the BOE5 flight status page for this flight to view local times or setup timezone preferences in your user account.

Time Position Orientation Groundspeed Altitude Reporting Facility
EDT Latitude Longitude Course Direction KTS MPH feet Rate Location/Type
04:51PM 47.2187 -119.3631 142° Southeast  Level FlightAware Approximate
04:51PM 47.1594 -119.2956 182° South 187 215 4,700  Level Seattle Center
04:52PM 47.0936 -119.2992 294° West 256 295 8,400 3,540 Climbing Seattle Center
04:53PM 47.1239 -119.4014 318° Northwest 320 368 11,900 3,600 Climbing Seattle Center
04:54PM 47.1889 -119.4861 297° West 327 376 15,900 3,660 Climbing Seattle Center
04:55PM 47.2308 -119.6086 301° West 338 389 19,500 3,240 Climbing Seattle Center
04:56PM 47.2811 -119.7319 301° West 352 405 22,600 3,180 Climbing Seattle Center
04:57PM 47.3325 -119.8586 301° West 358 412 26,000 2,400 Climbing Seattle Center
04:58PM 47.3867 -119.9919 299° West 378 435 27,600 1,620 Climbing Seattle Center
05:00PM 47.4419 -120.1383 300° West 405 466 29,400 1,800 Climbing Seattle Center
05:01PM 47.5017 -120.2903 301° West 423 487 31,400 1,740 Climbing Seattle Center
05:02PM 47.5633 -120.4450 300° West 433 498 33,000 1,080 Climbing Seattle Center
05:03PM 47.6264 -120.6103 296° West 461 531 33,700 900 Climbing Seattle Center
05:04PM 47.6947 -120.8178 285° West 466 536 34,900 600 Climbing Seattle Center
05:05PM 47.7256 -120.9939 285° West 469 540 35,000  Climbing Seattle Center
05:06PM 47.7586 -121.1739 285° West 461 531 35,000  Level Seattle Center
05:07PM 47.7897 -121.3533 284° West 456 525 35,000  Level Seattle Center
05:08PM 47.8197 -121.5350 284° West 457 526 35,000  Level Seattle Center
05:09PM 47.8575 -121.7575 284° West 467 537 35,000  Level Seattle Center
05:10PM 47.8867 -121.9328 284° West 448 516 35,000  Level Seattle Center
05:11PM 47.9153 -122.1014 284° West 431 496 35,000  Level Seattle Center
05:12PM 47.9439 -122.2758 284° West 440 506 35,000  Level Seattle Center
05:13PM 47.9747 -122.4644 283° West 474 545 35,000  Level Seattle Center
05:14PM 48.0111 -122.6933 283° West 482 555 35,000  Level Seattle Center
05:15PM 48.0394 -122.8800 283° West 474 545 35,000  Level Seattle Center
05:16PM 48.0681 -123.0628 283° West 462 532 35,000 -60 Level Seattle Center
05:17PM 48.0947 -123.2344 282° West 452 520 34,900 -60 Descending Seattle Center
05:18PM 48.1192 -123.4136 255° West 443 510 34,900 -60 Level Seattle Center
05:19PM 48.0892 -123.5803 198° South 417 480 34,800 -480 Descending Seattle Center
05:20PM 47.9886 -123.6300 163° South 402 463 34,000 -780 Descending Seattle Center
05:21PM 47.8753 -123.5778 172° South 353 406 33,300 -1,140 Descending Seattle Center
05:22PM 47.7867 -123.5592 171° South 327 376 31,800 -1,080 Descending Seattle Center
05:23PM 47.6989 -123.5389 171° South 323 372 31,200 -420 Descending Seattle Center
05:24PM 47.6133 -123.5186 171° South 319 367 31,000 -240 Descending Seattle Center
05:25PM 47.5275 -123.4989 171° South 317 365 30,800 -120 Descending Seattle Center
05:26PM 47.4447 -123.4797 170° South 310 357 30,800  Level Seattle Center
05:27PM 47.3478 -123.4556 172° South 300 345 30,800 -900 Level Seattle Center
05:28PM 47.2617 -123.4383 171° South 312 359 29,000 -1,620 Descending Seattle Center
05:29PM 47.1611 -123.4144 188° South 368 423 27,600 -660 Descending Seattle Center
05:30PM 47.0617 -123.4344 190° South 368 423 27,700  Climbing Seattle Center
05:31PM 46.9619 -123.4606 190° South 367 422 27,600 60 Descending Seattle Center
05:32PM 46.8625 -123.4867 190° South 367 422 27,900 180 Climbing Seattle Center
05:33PM 46.7625 -123.5122 191° South 369 425 28,000 780 Climbing Seattle Center
05:34PM 46.6389 -123.5467 189° South 379 436 29,500 1,320 Climbing Seattle Center
05:35PM 46.5264 -123.5714 192° South 405 466 30,800 1,440 Climbing Seattle Center
05:36PM 46.4292 -123.6008 190° South 411 473 32,500 1,500 Climbing Seattle Center
05:37PM 46.3131 -123.6303 190° South 421 484 33,900 1,200 Climbing Seattle Center
05:38PM 46.1692 -123.6661 190° South 437 503 35,000 540 Climbing Seattle Center
05:39PM 46.0472 -123.6967 190° South 443 510 35,000  Level Seattle Center
05:40PM 45.9261 -123.7281 190° South 444 511 35,000  Level Seattle Center
05:41PM 45.8050 -123.7583 190° South 443 510 35,000  Level Seattle Center
05:42PM 45.6825 -123.7906 190° South 447 514 35,000  Level Seattle Center
05:43PM 45.5617 -123.8211 190° South 445 512 35,000  Level Seattle Center
05:44PM 45.4414 -123.8506 189° South 442 509 35,000  Level Seattle Center
05:45PM 45.3214 -123.8778 190° South 440 506 35,000 -600 Level Seattle Center
05:46PM 45.2028 -123.9072 190° South 437 503 33,900 -2,040 Descending Seattle Center
05:47PM 45.0825 -123.9372 190° South 442 509 30,900 -2,880 Descending Seattle Center
05:48PM 44.9394 -123.9728 189° South 442 509 28,100 -2,520 Descending Seattle Center
05:49PM 44.8283 -123.9989 190° South 416 479 25,800 -2,340 Descending Seattle Center
05:50PM 44.7217 -124.0258 190° South 398 458 23,400 -2,460 Descending Seattle Center
05:51PM 44.6172 -124.0508 186° South 389 448 20,800 -2,520 Descending Seattle Center
05:52PM 44.5156 -124.0669 182° South 373 429 18,300 -2,460 Descending Seattle Center
05:53PM 44.4164 -124.0728 183° South 361 415 15,900 -2,340 Descending Seattle Center
05:54PM 44.3178 -124.0794 183° South 357 411 13,600 -2,220 Descending Seattle Center
05:56PM 44.2233 -124.0867 183° South 348 400 11,400 -1,380 Descending Seattle Center
05:57PM 44.1383 -124.0922 182° South 303 349 10,800 -600 Descending Seattle Center
05:58PM 44.0500 -124.0967 182° South 268 308 10,300 -600 Descending Seattle Center
05:59PM 43.9833 -124.1006 183° South 248 285 9,700 -660 Descending Seattle Center
06:00PM 43.9181 -124.1050 183° South 240 276 9,000 -300 Descending Seattle Center
06:01PM 43.8508 -124.1097 183° South 241 277 9,100 1,320 Climbing Seattle Center
06:02PM 43.7808 -124.1144 182° South 247 284 11,700 3,000 Climbing Seattle Center
06:03PM 43.6933 -124.1197 182° South 302 348 15,200 3,900 Climbing Seattle Center
06:04PM 43.6014 -124.1250 183° South 324 373 19,700 3,720 Climbing Seattle Center
06:05PM 43.5119 -124.1311 182° South 325 374 22,900 3,120 Climbing Seattle Center
06:06PM 43.4236 -124.1358 183° South 320 368 26,100 2,820 Climbing Seattle Center
06:07PM 43.3328 -124.1417 183° South 324 373 28,700 2,100 Climbing Seattle Center
06:08PM 43.2372 -124.1483 188° South 337 388 30,400 1,800 Climbing Seattle Center
06:09PM 43.1128 -124.1736 224° Southwest 369 425 32,400 1,560 Climbing Seattle Center
06:10PM 43.0383 -124.2736 260° West 373 429 33,600 1,200 Climbing Seattle Center
06:11PM 43.0189 -124.4258 303° West 414 476 34,900 660 Climbing Seattle Center
06:12PM 43.0825 -124.5625 346° North 445 512 35,000  Climbing Seattle Center
06:13PM 43.2169 -124.6078 360° North 508 585 35,000  Level Seattle Center
06:14PM 43.3581 -124.6072 360° North 507 583 35,000 -60 Level Seattle Center
06:15PM 43.4975 -124.6081 358° North 503 579 34,900 -1,080 Descending Seattle Center
06:16PM 43.6375 -124.6133 North 503 579 32,900 -1,980 Descending Seattle Center
06:17PM 43.7742 -124.6108 360° North 496 571 30,900 -1,860 Descending Seattle Center
06:18PM 43.9089 -124.6103 360° North 487 560 29,200 -1,680 Descending Seattle Center
06:19PM 44.0433 -124.6106 360° North 483 556 27,500 -1,740 Descending Seattle Center
06:20PM 44.1792 -124.6114 360° North 486 559 25,700 -1,920 Descending Seattle Center
06:21PM 44.3372 -124.6114 360° North 479 551 23,600 -1,920 Descending Seattle Center
06:22PM 44.4636 -124.6125 360° North 467 537 21,900 -1,740 Descending Seattle Center
06:23PM 44.5833 -124.6131 360° North 452 520 20,100 -1,560 Descending Seattle Center
06:24PM 44.6969 -124.6139 360° North 433 498 18,800 -1,320 Descending Seattle Center
06:25PM 44.8119 -124.6136 360° North 422 486 17,500 -1,320 Descending Seattle Center
06:26PM 44.9219 -124.6133 North 411 473 16,100 -1,380 Descending Seattle Center
06:27PM 45.0303 -124.6117 360° North 401 461 14,800 -1,380 Descending Seattle Center
06:28PM 45.1347 -124.6111 359° North 389 448 13,400 -1,380 Descending Seattle Center
06:29PM 45.2350 -124.6139 360° North 377 434 12,000 -1,380 Descending Seattle Center
06:30PM 45.3314 -124.6136 360° North 365 420 10,700 -900 Descending Seattle Center
06:31PM 45.4231 -124.6139 360° North 349 402 10,200 -600 Descending Seattle Center
06:32PM 45.5033 -124.6144 360° North 322 371 9,500 -600 Descending Seattle Center
06:33PM 45.5792 -124.6150 360° North 295 339 9,000 -300 Descending Seattle Center
06:34PM 45.6572 -124.6158 360° North 284 327 9,000  Level Seattle Center
06:35PM 45.7506 -124.6167 360° North 281 323 9,000  Level Seattle Center
06:36PM 45.8300 -124.6172 359° North 282 325 9,000 480 Level Seattle Center
06:37PM 45.9106 -124.6183 North 286 329 10,000 1,800 Climbing Seattle Center
06:38PM 46.0031 -124.6156 360° North 335 386 12,700 2,880 Climbing Seattle Center
06:39PM 46.1028 -124.6167 360° North 361 415 15,900 3,060 Climbing Seattle Center
06:40PM 46.2111 -124.6169 359° North 391 450 19,000 2,880 Climbing Seattle Center
06:41PM 46.3244 -124.6194 360° North 404 465 21,800 2,580 Climbing Seattle Center
06:42PM 46.4392 -124.6197 North 427 491 24,300 1,560 Climbing Seattle Center
06:43PM 46.5864 -124.6100 53° Northeast 442 509 25,000 300 Climbing Seattle Center
06:44PM 46.6628 -124.4608 73° East 488 562 25,000  Level Seattle Center
06:45PM 46.7019 -124.2708 73° East 496 571 25,000 -60 Level Seattle Center
06:46PM 46.7422 -124.0747 74° East 503 579 24,900  Descending Seattle Center
06:47PM 46.7778 -123.8931 73° East 474 545 25,000 -180 Climbing Seattle Center
06:48PM 46.8122 -123.7272 74° East 446 513 24,600 -1,260 Descending Seattle Center
06:49PM 46.8453 -123.5600 74° East 438 504 22,500 -2,100 Descending Seattle Center
06:51PM 46.8767 -123.3956 74° East 431 496 20,400 -1,800 Descending Seattle Center
06:52PM 46.9061 -123.2450 75° East 397 457 18,900 -1,680 Descending Seattle Center
06:53PM 46.9394 -123.0664 74° East 387 445 17,100 -1,080 Descending Seattle Center
06:53PM 46.9600 -122.9619 52° Northeast 370 426 17,000 -480 Descending Seattle Center
06:54PM 47.0322 -122.8261 41° Northeast 375 432 16,300 -1,200 Descending Seattle Center
06:55PM 47.1081 -122.7300 42° Northeast 363 418 14,500 -1,680 Descending Seattle Center
06:56PM 47.1800 -122.6361 41° Northeast 330 380 12,900 -1,560 Descending Seattle Center
06:57PM 47.2453 -122.5517 40° Northeast 315 362 11,400 -1,380 Descending Seattle Center
06:59PM 47.3164 -122.4639 North 303 349 10,000 -960 Descending Seattle Center
06:59PM 47.3872 -122.4544 358° North 291 335 9,500 -1,380 Descending Seattle Center
07:00PM 47.4639 -122.4583 360° North 257 296 7,400 -2,520 Descending Seattle Center
07:01PM 47.5303 -122.4581 349° North 267 307 4,700 -2,400 Descending Seattle Center
07:02PM 47.6000 -122.4789 341° North 255 293 2,800 -1,200 Descending Seattle Center
07:04PM 47.6686 -122.5133 61° Northeast 223 257 2,200 -300 Descending Seattle Center
07:04PM 47.6897 -122.4558 138° Southeast 184 212 2,200  Level Seattle Center
07:05PM 47.6564 -122.4117 150° Southeast 175 201 2,200 -120 Level Seattle Center
07:06PM 47.6194 -122.3794 151° Southeast 153 176 2,000 -540 Descending Seattle Center
07:07PM 47.5883 -122.3539 149° Southeast 138 159 1,200 -840 Descending Seattle Center
07:09PM 47.5542 -122.3236 149° Southeast 150 173 400 -480 Descending Seattle Center
07:10PM 47.5139 -122.2878 149° Southeast 139 160 100 -240 Descending Seattle Center